Time;durP1;ratioP1;P1;durP2;ratioP2;P2;SDS_P1;SDS_P2;PMS_P1;PMS_P2;Temp;Humidity;BMP_temperature;BMP_pressure;BME280_temperature;BME280_humidity;BME280_pressure;Samples;Min_cycle;Max_cycle;Signal;HPM_P1;HPM_P2
2023/05/17 00:01:35;;;;;;;4.90;2.15;;;;;;;;;;5077486;28;20428;-61
2023/05/17 00:04:01;;;;;;;4.07;2.40;;;;;;;;;;5074706;28;20040;-61
2023/05/17 00:06:28;;;;;;;3.33;2.10;;;;;;;;;;5078174;28;20052;-61
2023/05/17 00:08:54;;;;;;;6.68;2.40;;;;;;;;;;5060678;28;20070;-60
2023/05/17 00:11:20;;;;;;;3.92;2.35;;;;;;;;;;5088057;28;20495;-61
2023/05/17 00:13:46;;;;;;;4.80;2.15;;;;;;;;;;5077754;28;20040;-58
2023/05/17 00:16:13;;;;;;;4.47;2.40;;;;;;;;;;5075935;28;20145;-60
2023/05/17 00:18:39;;;;;;;4.28;2.40;;;;;;;;;;5082024;28;20314;-61
2023/05/17 00:21:06;;;;;;;4.10;2.05;;;;;;;;;;5064954;28;20055;-60
2023/05/17 00:23:33;;;;;;;5.28;2.50;;;;;;;;;;5080016;28;20056;-61
2023/05/17 00:25:59;;;;;;;5.32;2.28;;;;;;;;;;5086599;28;20047;-60
2023/05/17 00:28:25;;;;;;;5.18;2.13;;;;;;;;;;5077608;28;20055;-60
2023/05/17 00:30:51;;;;;;;4.53;2.13;;;;;;;;;;5081751;28;20101;-60
2023/05/17 00:33:17;;;;;;;7.90;2.63;;;;;;;;;;5080752;28;20032;-60
2023/05/17 00:35:43;;;;;;;6.10;2.40;;;;;;;;;;5077075;28;20058;-61
2023/05/17 00:38:09;;;;;;;11.25;2.83;;;;;;;;;;5065626;28;20051;-60
2023/05/17 00:40:35;;;;;;;4.75;2.45;;;;;;;;;;5078825;28;20052;-59
2023/05/17 00:43:01;;;;;;;4.47;2.30;;;;;;;;;;5085233;28;20127;-60
2023/05/17 00:45:27;;;;;;;4.70;2.40;;;;;;;;;;5075735;28;20054;-58
2023/05/17 00:47:53;;;;;;;3.97;2.30;;;;;;;;;;5078870;28;20043;-58
2023/05/17 00:50:19;;;;;;;3.95;2.10;;;;;;;;;;5078620;28;20109;-61
2023/05/17 00:52:48;;;;;;;5.13;2.10;;;;;;;;;;5082747;28;20052;-61
2023/05/17 00:55:20;;;;;;;4.07;2.22;;;;;;;;;;5074727;28;20072;-61
2023/05/17 00:57:48;;;;;;;4.57;2.42;;;;;;;;;;5068367;28;20056;-60
2023/05/17 01:00:15;;;;;;;4.32;2.25;;;;;;;;;;5077704;28;20063;-58
2023/05/17 01:02:47;;;;;;;3.47;2.40;;;;;;;;;;5075116;28;20040;-60
2023/05/17 01:05:14;;;;;;;5.63;2.55;;;;;;;;;;5081147;28;20036;-61
2023/05/17 01:07:40;;;;;;;8.38;2.67;;;;;;;;;;5075899;28;20041;-58
2023/05/17 01:10:09;;;;;;;4.68;2.60;;;;;;;;;;5074968;28;20044;-59
2023/05/17 01:18:58;;;;;;;8.55;2.67;;;;;;;;;;4997946;23;20060;-64
2023/05/17 01:22:27;;;;;;;4.73;2.43;;;;;;;;;;4910101;29;20407;-66
2023/05/17 01:25:51;;;;;;;6.18;2.50;;;;;;;;;;4900302;29;20302;-67
2023/05/17 01:28:21;;;;;;;3.33;2.17;;;;;;;;;;4924377;29;20056;-66
2023/05/17 01:30:51;;;;;;;6.78;2.55;;;;;;;;;;4905332;29;20059;-67
2023/05/17 01:33:19;;;;;;;8.85;3.28;;;;;;;;;;4911430;29;20147;-65
2023/05/17 01:35:45;;;;;;;7.10;2.97;;;;;;;;;;4902221;29;20052;-68
2023/05/17 01:38:11;;;;;;;7.65;3.70;;;;;;;;;;4893411;29;20059;-66
2023/05/17 01:40:46;;;;;;;6.45;3.70;;;;;;;;;;4909592;29;20048;-66
2023/05/17 01:43:33;;;;;;;7.88;3.42;;;;;;;;;;4909963;29;20111;-66
2023/05/17 01:47:00;;;;;;;7.75;3.25;;;;;;;;;;4899554;29;20080;-67
2023/05/17 01:50:41;;;;;;;7.50;3.30;;;;;;;;;;4901217;29;20048;-67
2023/05/17 01:54:27;;;;;;;6.82;3.38;;;;;;;;;;4907575;29;20044;-66
2023/05/17 01:57:48;;;;;;;;;;;;;;;;;;4908158;29;20044;-65
2023/05/17 02:01:28;;;;;;;6.90;3.00;;;;;;;;;;4906913;29;20006;-67
2023/05/17 02:05:08;;;;;;;9.32;4.30;;;;;;;;;;4910007;29;20040;-68
2023/05/17 02:08:50;;;;;;;10.35;4.20;;;;;;;;;;4905196;29;20044;-67
2023/05/17 02:12:30;;;;;;;8.70;4.68;;;;;;;;;;4908781;29;20361;-66
2023/05/17 02:16:11;;;;;;;6.03;3.30;;;;;;;;;;4909351;29;20138;-70
2023/05/17 02:19:51;;;;;;;6.60;3.20;;;;;;;;;;4904404;29;20086;-67
2023/05/17 02:23:31;;;;;;;10.05;3.42;;;;;;;;;;4906519;29;20474;-65
2023/05/17 02:27:13;;;;;;;5.10;3.33;;;;;;;;;;4906075;29;20049;-66
2023/05/17 02:30:55;;;;;;;4.85;3.03;;;;;;;;;;4912958;29;20040;-66
2023/05/17 02:34:34;;;;;;;7.45;3.20;;;;;;;;;;4913641;29;20113;-66
2023/05/17 02:38:14;;;;;;;10.38;3.30;;;;;;;;;;4912685;29;20060;-65
2023/05/17 02:41:54;;;;;;;7.80;3.38;;;;;;;;;;4913794;29;20071;-66
2023/05/17 02:45:35;;;;;;;6.75;3.40;;;;;;;;;;4914701;29;20044;-66
2023/05/17 02:49:15;;;;;;;6.90;3.50;;;;;;;;;;4909842;29;20050;-66
2023/05/17 02:52:55;;;;;;;6.55;3.60;;;;;;;;;;4910675;29;20195;-66
2023/05/17 02:56:36;;;;;;;9.77;3.72;;;;;;;;;;4912498;29;20436;-66
2023/05/17 03:00:16;;;;;;;8.25;3.95;;;;;;;;;;4910462;29;20068;-67
2023/05/17 03:03:57;;;;;;;7.40;3.92;;;;;;;;;;4910689;29;20768;-68
2023/05/17 03:07:38;;;;;;;8.40;4.10;;;;;;;;;;4910531;29;20127;-66
2023/05/17 03:11:18;;;;;;;8.60;3.72;;;;;;;;;;4911833;29;20472;-65
2023/05/17 03:14:59;;;;;;;7.47;3.80;;;;;;;;;;4908312;29;20127;-65
2023/05/17 03:18:39;;;;;;;6.18;2.78;;;;;;;;;;4906707;29;20044;-65
2023/05/17 03:22:19;;;;;;;4.18;2.58;;;;;;;;;;4911004;29;20100;-65
2023/05/17 03:26:00;;;;;;;5.03;2.42;;;;;;;;;;4904453;29;20093;-65
2023/05/17 03:29:40;;;;;;;5.68;2.80;;;;;;;;;;4909336;29;20048;-66
2023/05/17 03:33:20;;;;;;;4.95;2.75;;;;;;;;;;4905676;29;20052;-66
2023/05/17 03:37:01;;;;;;;4.55;2.67;;;;;;;;;;4912512;29;20148;-67
2023/05/17 03:40:41;;;;;;;11.43;3.05;;;;;;;;;;4913240;29;20559;-68
2023/05/17 03:44:21;;;;;;;6.95;3.00;;;;;;;;;;4915114;29;20043;-66
2023/05/17 03:48:02;;;;;;;6.93;3.05;;;;;;;;;;4908539;29;20516;-67
2023/05/17 03:51:42;;;;;;;10.35;3.58;;;;;;;;;;4911270;29;20044;-66
2023/05/17 03:55:23;;;;;;;5.25;3.00;;;;;;;;;;4910303;29;20418;-65
2023/05/17 03:59:03;;;;;;;6.70;3.13;;;;;;;;;;4912385;29;20040;-66
2023/05/17 04:02:43;;;;;;;5.65;3.20;;;;;;;;;;4910074;29;20484;-67
2023/05/17 04:06:25;;;;;;;5.22;2.63;;;;;;;;;;4903858;29;20036;-66
2023/05/17 04:10:06;;;;;;;8.63;3.45;;;;;;;;;;4905794;29;20040;-67
2023/05/17 04:13:47;;;;;;;6.28;3.10;;;;;;;;;;4910247;29;20704;-65
2023/05/17 04:17:29;;;;;;;8.02;3.05;;;;;;;;;;4908271;29;20049;-68
2023/05/17 04:21:09;;;;;;;7.78;3.08;;;;;;;;;;4911325;29;20143;-67
2023/05/17 04:24:50;;;;;;;10.18;3.60;;;;;;;;;;4910213;29;20090;-67
2023/05/17 04:28:31;;;;;;;4.13;2.47;;;;;;;;;;4904895;29;20047;-64
2023/05/17 04:32:11;;;;;;;6.43;2.90;;;;;;;;;;4907693;29;20052;-66
2023/05/17 04:35:52;;;;;;;6.85;3.20;;;;;;;;;;4905920;29;20094;-64
2023/05/17 04:39:33;;;;;;;8.35;3.40;;;;;;;;;;4910488;29;20074;-66
2023/05/17 04:43:13;;;;;;;6.93;2.72;;;;;;;;;;4907504;29;20114;-65
2023/05/17 04:46:53;;;;;;;4.03;2.55;;;;;;;;;;4903964;29;20105;-67
2023/05/17 04:50:34;;;;;;;8.15;2.40;;;;;;;;;;4908600;29;21210;-64
2023/05/17 04:54:15;;;;;;;10.02;2.50;;;;;;;;;;4913413;29;20127;-66
2023/05/17 04:57:56;;;;;;;4.97;2.70;;;;;;;;;;4910766;29;20521;-64
2023/05/17 05:01:36;;;;;;;8.27;3.25;;;;;;;;;;4904883;29;20072;-70
2023/05/17 05:04:53;;;;;;;6.20;3.15;;;;;;;;;;4907231;29;20048;-66
2023/05/17 05:07:59;;;;;;;8.07;3.80;;;;;;;;;;4900590;29;20130;-63
2023/05/17 05:11:39;;;;;;;12.90;3.45;;;;;;;;;;4905803;29;20044;-63
2023/05/17 05:15:20;;;;;;;9.20;3.45;;;;;;;;;;4907229;29;20506;-64
2023/05/17 05:19:00;;;;;;;7.97;3.05;;;;;;;;;;4902462;29;20047;-64
2023/05/17 05:22:41;;;;;;;6.22;3.25;;;;;;;;;;4907515;29;20157;-64
2023/05/17 05:26:21;;;;;;;13.48;4.10;;;;;;;;;;4911390;29;20076;-65
2023/05/17 05:30:01;;;;;;;8.43;3.28;;;;;;;;;;4908484;29;20046;-63
2023/05/17 05:33:44;;;;;;;8.45;3.22;;;;;;;;;;4903709;29;20048;-64
2023/05/17 05:37:25;;;;;;;7.88;3.17;;;;;;;;;;4907885;29;20059;-66
2023/05/17 05:41:07;;;;;;;11.90;4.55;;;;;;;;;;4907672;29;20852;-64
2023/05/17 05:44:47;;;;;;;13.40;3.40;;;;;;;;;;4905925;29;20052;-64
2023/05/17 05:48:27;;;;;;;11.50;2.88;;;;;;;;;;4909443;29;20377;-65
2023/05/17 05:52:09;;;;;;;8.13;2.67;;;;;;;;;;4907353;29;20056;-66
2023/05/17 05:55:49;;;;;;;8.93;2.88;;;;;;;;;;4906651;29;20521;-63
2023/05/17 05:59:30;;;;;;;9.02;3.25;;;;;;;;;;4903014;29;20059;-62
2023/05/17 06:03:10;;;;;;;8.30;2.83;;;;;;;;;;4902632;29;20580;-66
2023/05/17 06:06:50;;;;;;;6.85;2.65;;;;;;;;;;4909640;29;20131;-64
2023/05/17 06:10:31;;;;;;;7.97;2.70;;;;;;;;;;4908296;29;20096;-66
2023/05/17 06:14:12;;;;;;;8.55;2.70;;;;;;;;;;4911388;29;20513;-64
2023/05/17 06:17:53;;;;;;;11.13;2.55;;;;;;;;;;4911255;29;20076;-64
2023/05/17 06:21:33;;;;;;;7.53;2.78;;;;;;;;;;4910014;29;20056;-64
2023/05/17 06:24:34;;;;;;;6.13;2.40;;;;;;;;;;4907626;29;20505;-62
2023/05/17 06:27:00;;;;;;;10.98;2.80;;;;;;;;;;4907248;29;20602;-65
2023/05/17 06:29:26;;;;;;;14.10;2.60;;;;;;;;;;4909741;29;20123;-64
2023/05/17 06:31:55;;;;;;;13.80;3.40;;;;;;;;;;4906584;29;20616;-63
2023/05/17 06:34:21;;;;;;;9.95;4.22;;;;;;;;;;4910609;29;20092;-64
2023/05/17 06:36:47;;;;;;;7.10;2.80;;;;;;;;;;4905051;29;20139;-66
2023/05/17 06:39:13;;;;;;;11.93;4.30;;;;;;;;;;4911446;29;20063;-64
2023/05/17 06:41:39;;;;;;;13.55;3.45;;;;;;;;;;4913015;29;20052;-63
2023/05/17 06:44:05;;;;;;;6.32;2.58;;;;;;;;;;4910501;29;20120;-65
2023/05/17 06:47:11;;;;;;;4.28;2.10;;;;;;;;;;4907680;29;21046;-63
2023/05/17 06:50:51;;;;;;;10.80;2.42;;;;;;;;;;4912127;29;20048;-67
2023/05/17 06:54:31;;;;;;;17.85;3.10;;;;;;;;;;4911454;29;20048;-63
2023/05/17 06:58:13;;;;;;;10.90;2.58;;;;;;;;;;4906022;29;20063;-67
2023/05/17 07:01:53;;;;;;;5.95;2.33;;;;;;;;;;4901011;29;20052;-63
2023/05/17 07:05:34;;;;;;;9.43;2.47;;;;;;;;;;4901186;29;20084;-66
2023/05/17 07:09:16;;;;;;;20.63;4.22;;;;;;;;;;4910133;29;20135;-65
2023/05/17 07:12:57;;;;;;;6.95;3.20;;;;;;;;;;4907915;29;20584;-63
2023/05/17 07:16:38;;;;;;;14.00;3.03;;;;;;;;;;4908837;29;20064;-63
2023/05/17 07:20:18;;;;;;;10.98;2.50;;;;;;;;;;4912978;29;20818;-64
2023/05/17 07:23:58;;;;;;;10.50;2.58;;;;;;;;;;4910757;29;20052;-64
2023/05/17 07:27:07;;;;;;;9.60;2.70;;;;;;;;;;4909672;29;20609;-66
2023/05/17 07:30:47;;;;;;;17.80;2.80;;;;;;;;;;4907563;29;20048;-65
2023/05/17 07:34:28;;;;;;;9.60;2.63;;;;;;;;;;4910643;29;20469;-65
2023/05/17 07:38:09;;;;;;;11.73;2.65;;;;;;;;;;4909288;29;20059;-64
2023/05/17 07:41:48;;;;;;;5.95;2.50;;;;;;;;;;4906101;29;20083;-64
2023/05/17 07:45:29;;;;;;;10.25;2.40;;;;;;;;;;4911582;29;20144;-64
2023/05/17 07:49:09;;;;;;;5.00;2.17;;;;;;;;;;4910244;29;20044;-65
2023/05/17 07:52:49;;;;;;;6.35;2.28;;;;;;;;;;4904291;29;20066;-64
2023/05/17 07:56:30;;;;;;;16.13;4.30;;;;;;;;;;4909397;29;20075;-67
2023/05/17 08:00:12;;;;;;;6.75;2.00;;;;;;;;;;4915529;29;20080;-66
2023/05/17 08:03:52;;;;;;;4.35;1.70;;;;;;;;;;4914317;29;20456;-64
2023/05/17 08:07:32;;;;;;;5.93;1.95;;;;;;;;;;4906533;29;20133;-64
2023/05/17 08:11:12;;;;;;;4.57;2.00;;;;;;;;;;4912328;29;20099;-64
2023/05/17 08:14:53;;;;;;;9.30;2.10;;;;;;;;;;4911033;29;20056;-64
2023/05/17 08:18:33;;;;;;;8.20;2.28;;;;;;;;;;4900885;29;20730;-65
2023/05/17 08:22:14;;;;;;;10.32;2.33;;;;;;;;;;4904643;29;20059;-64
2023/05/17 08:25:54;;;;;;;6.30;2.30;;;;;;;;;;4907441;29;20047;-64
2023/05/17 08:29:34;;;;;;;8.02;2.33;;;;;;;;;;4911375;29;20052;-66
2023/05/17 08:33:15;;;;;;;7.20;2.00;;;;;;;;;;4910421;29;20060;-65
2023/05/17 08:36:55;;;;;;;4.90;2.13;;;;;;;;;;4913152;29;20052;-66
2023/05/17 08:40:35;;;;;;;3.88;2.00;;;;;;;;;;4908463;29;20044;-63
2023/05/17 08:44:16;;;;;;;8.38;2.13;;;;;;;;;;4910929;29;20421;-65
2023/05/17 08:47:56;;;;;;;8.90;2.22;;;;;;;;;;4910321;29;20469;-65
2023/05/17 08:51:38;;;;;;;9.63;2.50;;;;;;;;;;4905761;29;20551;-65
2023/05/17 08:55:17;;;;;;;8.32;2.63;;;;;;;;;;4908561;29;20377;-65
2023/05/17 08:58:57;;;;;;;9.35;2.72;;;;;;;;;;4912465;29;20056;-66
2023/05/17 09:02:38;;;;;;;11.80;2.92;;;;;;;;;;4911170;29;20048;-66
2023/05/17 09:06:19;;;;;;;10.88;3.20;;;;;;;;;;4904089;29;20082;-64
2023/05/17 09:09:59;;;;;;;6.45;3.05;;;;;;;;;;4911805;29;20063;-65
2023/05/17 09:13:41;;;;;;;4.60;2.60;;;;;;;;;;4909518;29;20055;-64
2023/05/17 09:17:22;;;;;;;6.45;2.25;;;;;;;;;;4911250;29;20397;-65
2023/05/17 09:21:03;;;;;;;12.80;2.60;;;;;;;;;;4911961;29;20091;-66
2023/05/17 09:24:48;;;;;;;6.75;2.25;;;;;;;;;;4909114;29;20052;-64
2023/05/17 09:28:28;;;;;;;7.50;2.45;;;;;;;;;;4910382;29;20122;-68
2023/05/17 09:32:09;;;;;;;5.97;2.60;;;;;;;;;;4913848;29;20056;-64
2023/05/17 09:35:49;;;;;;;8.32;1.90;;;;;;;;;;4909328;29;20062;-65
2023/05/17 09:39:36;;;;;;;9.20;2.33;;;;;;;;;;4905692;29;20551;-64
2023/05/17 09:42:56;;;;;;;;;;;;;;;;;;4904750;29;20052;-63
2023/05/17 09:46:37;;;;;;;7.13;2.30;;;;;;;;;;4910274;29;20379;-64
2023/05/17 09:50:16;;;;;;;10.25;2.58;;;;;;;;;;4907429;29;20055;-67
2023/05/17 09:54:09;;;;;;;8.68;2.33;;;;;;;;;;4911087;29;20056;-66
2023/05/17 09:57:50;;;;;;;7.88;2.17;;;;;;;;;;4902960;29;20063;-64
2023/05/17 10:01:30;;;;;;;10.40;2.50;;;;;;;;;;4905977;29;20044;-66
2023/05/17 10:05:11;;;;;;;4.50;2.25;;;;;;;;;;4909304;29;20126;-65
2023/05/17 10:08:53;;;;;;;5.18;2.60;;;;;;;;;;4902340;29;20198;-65
2023/05/17 10:12:35;;;;;;;5.20;2.08;;;;;;;;;;4908232;29;20149;-64
2023/05/17 10:16:16;;;;;;;5.90;2.50;;;;;;;;;;4907685;29;20063;-66
2023/05/17 10:19:56;;;;;;;5.18;2.28;;;;;;;;;;4910615;29;20460;-65
2023/05/17 10:23:37;;;;;;;11.93;2.75;;;;;;;;;;4910031;29;20543;-65
2023/05/17 10:27:16;;;;;;;17.42;2.58;;;;;;;;;;4903920;29;20040;-64
2023/05/17 10:30:56;;;;;;;10.60;2.65;;;;;;;;;;4908889;29;20119;-64
2023/05/17 10:34:37;;;;;;;7.00;2.50;;;;;;;;;;4907935;29;20400;-67
2023/05/17 10:38:17;;;;;;;10.68;2.13;;;;;;;;;;4915997;29;20048;-64
2023/05/17 10:42:01;;;;;;;7.00;2.58;;;;;;;;;;4901854;29;20059;-64
2023/05/17 10:45:41;;;;;;;5.22;2.20;;;;;;;;;;4912228;29;20047;-62
2023/05/17 10:49:23;;;;;;;10.75;2.83;;;;;;;;;;4906929;29;20048;-64
2023/05/17 10:53:06;;;;;;;3.13;1.80;;;;;;;;;;4911894;29;20072;-64
2023/05/17 10:56:46;;;;;;;5.97;2.30;;;;;;;;;;4909968;29;20051;-64
2023/05/17 11:00:38;;;;;;;3.83;2.22;;;;;;;;;;4913808;29;20103;-66
2023/05/17 11:04:18;;;;;;;5.22;1.83;;;;;;;;;;4912320;29;20101;-63
2023/05/17 11:07:21;;;;;;;7.95;2.10;;;;;;;;;;4914842;29;20785;-66
2023/05/17 11:11:01;;;;;;;3.08;2.03;;;;;;;;;;4909907;29;20048;-64
2023/05/17 11:14:43;;;;;;;6.55;2.35;;;;;;;;;;4912360;29;20052;-67
2023/05/17 11:17:49;;;;;;;8.10;1.90;;;;;;;;;;4910407;29;20084;-65
2023/05/17 11:21:27;;;;;;;4.45;2.10;;;;;;;;;;4911651;29;20048;-65
2023/05/17 11:25:07;;;;;;;3.88;2.03;;;;;;;;;;4915180;29;20176;-66
2023/05/17 11:28:47;;;;;;;6.20;2.20;;;;;;;;;;4910227;29;20465;-66
2023/05/17 11:32:28;;;;;;;4.90;1.88;;;;;;;;;;4909885;29;20064;-66
2023/05/17 11:36:08;;;;;;;5.03;2.10;;;;;;;;;;4909498;29;20094;-65
2023/05/17 11:39:48;;;;;;;4.28;2.00;;;;;;;;;;4912323;29;20055;-64
2023/05/17 11:43:38;;;;;;;6.85;2.42;;;;;;;;;;4914235;29;20488;-65
2023/05/17 11:47:24;;;;;;;10.63;2.30;;;;;;;;;;4911241;29;20060;-64
2023/05/17 11:51:05;;;;;;;6.00;1.85;;;;;;;;;;4907253;29;20472;-66
2023/05/17 11:54:45;;;;;;;5.07;2.10;;;;;;;;;;4909347;29;20181;-68
2023/05/17 11:58:28;;;;;;;5.13;1.90;;;;;;;;;;4913232;29;20135;-64
2023/05/17 12:02:09;;;;;;;4.82;2.20;;;;;;;;;;4911975;29;20044;-67
2023/05/17 12:05:49;;;;;;;7.32;2.17;;;;;;;;;;4911384;29;20112;-65
2023/05/17 12:09:30;;;;;;;8.65;2.17;;;;;;;;;;4909783;29;20400;-63
2023/05/17 12:13:10;;;;;;;9.20;2.30;;;;;;;;;;4909720;29;20048;-65
2023/05/17 12:16:55;;;;;;;8.88;3.40;;;;;;;;;;4906992;29;20416;-65
2023/05/17 12:20:31;;;;;;;14.25;8.05;;;;;;;;;;4908930;29;20048;-64
2023/05/17 12:24:11;;;;;;;4.65;2.65;;;;;;;;;;4912903;29;20052;-66
2023/05/17 12:27:53;;;;;;;6.13;2.17;;;;;;;;;;4913369;29;20036;-66
2023/05/17 12:31:33;;;;;;;4.97;2.75;;;;;;;;;;4912207;29;20087;-64
2023/05/17 12:35:13;;;;;;;5.55;2.10;;;;;;;;;;4904869;29;20106;-66
2023/05/17 12:38:53;;;;;;;12.98;4.80;;;;;;;;;;4907337;29;20055;-65
2023/05/17 12:42:34;;;;;;;5.65;2.95;;;;;;;;;;4911521;29;20070;-64
2023/05/17 12:46:15;;;;;;;3.67;1.73;;;;;;;;;;4906552;29;20086;-65
2023/05/17 12:49:58;;;;;;;5.13;1.90;;;;;;;;;;4910905;29;20519;-70
2023/05/17 12:53:39;;;;;;;6.63;1.90;;;;;;;;;;4910734;29;20068;-64
2023/05/17 12:57:29;;;;;;;6.25;2.28;;;;;;;;;;4909905;29;20079;-65
2023/05/17 13:01:15;;;;;;;7.18;2.47;;;;;;;;;;4908654;29;20063;-65
2023/05/17 13:04:37;;;;;;;;;;;;;;;;;;4911967;29;20052;-65
2023/05/17 13:08:16;;;;;;;6.30;1.98;;;;;;;;;;4908574;29;20057;-66
2023/05/17 13:11:56;;;;;;;13.10;1.85;;;;;;;;;;4910358;29;20110;-66
2023/05/17 13:15:37;;;;;;;11.05;1.80;;;;;;;;;;4904066;29;20445;-65
2023/05/17 13:19:34;;;;;;;5.13;1.70;;;;;;;;;;4903471;29;20063;-64
2023/05/17 13:23:12;;;;;;;4.63;1.90;;;;;;;;;;4910114;29;20155;-66
2023/05/17 13:26:54;;;;;;;7.05;2.13;;;;;;;;;;4910908;29;20377;-65
2023/05/17 13:30:34;;;;;;;5.90;1.90;;;;;;;;;;4904495;29;20052;-66
2023/05/17 13:34:15;;;;;;;6.20;2.00;;;;;;;;;;4906278;29;20055;-66
2023/05/17 13:37:56;;;;;;;5.82;2.00;;;;;;;;;;4908392;29;20075;-66
2023/05/17 13:41:36;;;;;;;12.82;1.98;;;;;;;;;;4900967;29;20146;-66
2023/05/17 13:45:00;;;;;;;7.00;1.80;;;;;;;;;;4907415;29;20052;-66
2023/05/17 13:47:28;;;;;;;4.78;1.70;;;;;;;;;;4903146;29;20055;-67
2023/05/17 13:49:54;;;;;;;5.72;1.77;;;;;;;;;;4906074;29;20075;-67
2023/05/17 13:52:21;;;;;;;4.15;1.80;;;;;;;;;;4909758;29;20099;-68
2023/05/17 13:54:47;;;;;;;6.05;2.00;;;;;;;;;;4910805;29;20129;-69
2023/05/17 13:57:13;;;;;;;8.30;2.03;;;;;;;;;;4910586;29;20052;-69
2023/05/17 13:59:39;;;;;;;7.60;2.03;;;;;;;;;;4911960;29;20516;-68
2023/05/17 14:02:06;;;;;;;4.65;1.88;;;;;;;;;;4910345;29;20051;-68
2023/05/17 14:04:32;;;;;;;5.97;1.80;;;;;;;;;;4909410;29;20051;-68
2023/05/17 14:06:58;;;;;;;4.90;1.80;;;;;;;;;;4909491;29;20449;-69
2023/05/17 14:09:29;;;;;;;6.47;1.70;;;;;;;;;;4907414;29;20516;-72
2023/05/17 14:11:55;;;;;;;6.75;1.77;;;;;;;;;;4907463;29;20062;-69
2023/05/17 14:14:24;;;;;;;7.85;2.13;;;;;;;;;;4909105;29;20152;-68
2023/05/17 14:16:56;;;;;;;6.53;1.90;;;;;;;;;;4906031;29;20048;-68
2023/05/17 14:19:22;;;;;;;11.18;2.40;;;;;;;;;;4911280;29;20059;-70
2023/05/17 14:21:49;;;;;;;7.18;2.05;;;;;;;;;;4911372;29;20070;-68
2023/05/17 14:24:15;;;;;;;7.75;1.98;;;;;;;;;;4912779;29;20165;-68
2023/05/17 14:26:44;;;;;;;9.10;2.40;;;;;;;;;;4911385;29;20087;-69
2023/05/17 14:29:10;;;;;;;8.35;2.30;;;;;;;;;;4909572;29;20064;-67
2023/05/17 14:31:36;;;;;;;7.13;2.33;;;;;;;;;;4912787;29;20055;-67
2023/05/17 14:34:04;;;;;;;5.97;2.17;;;;;;;;;;4913680;29;20819;-70
2023/05/17 14:36:34;;;;;;;7.97;2.17;;;;;;;;;;4912255;29;20066;-68
2023/05/17 14:39:00;;;;;;;6.93;2.00;;;;;;;;;;4912703;29;20052;-73
2023/05/17 14:41:28;;;;;;;8.18;1.80;;;;;;;;;;4912652;29;20127;-70
2023/05/17 14:43:54;;;;;;;5.45;1.88;;;;;;;;;;4914359;29;20123;-68
2023/05/17 14:46:20;;;;;;;4.80;1.80;;;;;;;;;;4911974;29;20428;-72
2023/05/17 14:48:46;;;;;;;11.35;2.00;;;;;;;;;;4914358;29;20743;-69
2023/05/17 14:51:13;;;;;;;6.15;2.05;;;;;;;;;;4913976;29;20104;-70
2023/05/17 14:54:21;;;;;;;9.30;2.33;;;;;;;;;;4910093;29;20228;-71
2023/05/17 14:58:02;;;;;;;11.75;2.28;;;;;;;;;;4908550;29;20056;-65
2023/05/17 15:01:42;;;;;;;7.78;2.58;;;;;;;;;;4914985;29;20091;-66
2023/05/17 15:05:23;;;;;;;11.70;2.08;;;;;;;;;;4915818;29;20079;-69
2023/05/17 15:09:03;;;;;;;8.02;2.13;;;;;;;;;;4907126;29;20048;-68
2023/05/17 15:12:43;;;;;;;17.92;3.20;;;;;;;;;;4912295;29;20056;-68
2023/05/17 15:16:25;;;;;;;11.27;2.78;;;;;;;;;;4914382;29;20127;-66
2023/05/17 15:20:06;;;;;;;13.32;3.03;;;;;;;;;;4911895;29;20064;-71
2023/05/17 15:23:47;;;;;;;8.15;2.22;;;;;;;;;;4910649;29;20063;-71
2023/05/17 15:27:26;;;;;;;8.73;2.20;;;;;;;;;;4915074;29;20052;-69
2023/05/17 15:31:09;;;;;;;12.43;2.25;;;;;;;;;;4912032;29;20928;-67
2023/05/17 15:34:47;;;;;;;14.20;2.78;;;;;;;;;;4908472;29;20119;-71
2023/05/17 15:38:27;;;;;;;10.32;2.78;;;;;;;;;;4911474;29;20048;-70
2023/05/17 15:42:08;;;;;;;11.20;2.25;;;;;;;;;;4910204;29;20048;-67
2023/05/17 15:45:48;;;;;;;7.93;2.60;;;;;;;;;;4908377;29;20079;-68
2023/05/17 15:49:29;;;;;;;9.00;2.35;;;;;;;;;;4911727;29;20115;-71
2023/05/17 15:53:11;;;;;;;12.25;2.63;;;;;;;;;;4908480;29;20050;-72
2023/05/17 15:56:55;;;;;;;9.10;2.30;;;;;;;;;;4905249;29;20051;-69
2023/05/17 16:00:36;;;;;;;9.32;2.42;;;;;;;;;;4910392;29;20040;-67
2023/05/17 16:04:16;;;;;;;6.72;2.08;;;;;;;;;;4912909;29;20055;-68
2023/05/17 16:07:56;;;;;;;8.75;2.13;;;;;;;;;;4911711;29;20049;-67
2023/05/17 16:11:36;;;;;;;5.35;2.05;;;;;;;;;;4902280;29;20051;-67
2023/05/17 16:15:16;;;;;;;5.45;1.95;;;;;;;;;;4903460;29;20512;-66
2023/05/17 16:18:57;;;;;;;9.68;2.20;;;;;;;;;;4909368;29;20059;-65
2023/05/17 16:22:39;;;;;;;8.13;2.38;;;;;;;;;;4912855;29;20563;-68
2023/05/17 16:26:20;;;;;;;7.97;2.42;;;;;;;;;;4903474;29;20107;-66
2023/05/17 16:29:59;;;;;;;11.38;2.40;;;;;;;;;;4907695;29;20052;-65
2023/05/17 16:33:41;;;;;;;7.40;2.20;;;;;;;;;;4910120;29;20052;-66
2023/05/17 16:37:20;;;;;;;8.10;2.20;;;;;;;;;;4907121;29;20056;-66
2023/05/17 16:41:02;;;;;;;7.15;2.13;;;;;;;;;;4903787;29;20476;-65
2023/05/17 16:44:42;;;;;;;8.80;2.35;;;;;;;;;;4902043;29;20044;-67
2023/05/17 16:48:22;;;;;;;5.70;1.98;;;;;;;;;;4907638;29;20048;-65
2023/05/17 16:52:02;;;;;;;9.63;2.10;;;;;;;;;;4907476;29;20040;-67
2023/05/17 16:55:44;;;;;;;10.52;2.42;;;;;;;;;;4909831;29;20474;-68
2023/05/17 16:59:24;;;;;;;8.35;2.47;;;;;;;;;;4905874;29;20040;-67
2023/05/17 17:03:04;;;;;;;11.13;2.38;;;;;;;;;;4909244;29;20559;-66
2023/05/17 17:06:46;;;;;;;7.07;1.98;;;;;;;;;;4904206;29;20071;-66
2023/05/17 17:10:26;;;;;;;7.93;2.05;;;;;;;;;;4907402;29;20072;-67
2023/05/17 17:14:07;;;;;;;4.50;2.00;;;;;;;;;;4906587;29;20067;-68
2023/05/17 17:17:47;;;;;;;8.30;2.13;;;;;;;;;;4905049;29;20420;-67
2023/05/17 17:21:28;;;;;;;5.45;2.30;;;;;;;;;;4912638;29;20105;-67
2023/05/17 17:25:08;;;;;;;7.90;2.50;;;;;;;;;;4909327;29;20368;-66
2023/05/17 17:28:51;;;;;;;6.93;2.17;;;;;;;;;;4900455;29;20044;-66
2023/05/17 17:32:00;;;;;;;7.53;1.95;;;;;;;;;;4908309;29;21089;-69
2023/05/17 17:35:40;;;;;;;8.38;2.10;;;;;;;;;;4908606;29;20398;-66
2023/05/17 17:39:21;;;;;;;10.52;2.97;;;;;;;;;;4901855;29;20071;-67
2023/05/17 17:43:03;;;;;;;9.80;2.72;;;;;;;;;;4907004;29;20048;-65
2023/05/17 17:46:45;;;;;;;8.18;3.25;;;;;;;;;;4906772;29;20059;-64
2023/05/17 17:50:25;;;;;;;7.90;2.50;;;;;;;;;;4900966;29;20044;-65
2023/05/17 17:54:06;;;;;;;9.07;2.58;;;;;;;;;;4906499;29;20048;-65
2023/05/17 17:57:46;;;;;;;5.93;2.58;;;;;;;;;;4907024;29;20131;-65
2023/05/17 18:01:26;;;;;;;18.20;5.80;;;;;;;;;;4914811;29;20409;-65
2023/05/17 18:05:06;;;;;;;8.15;2.60;;;;;;;;;;4911793;29;20068;-68
2023/05/17 18:08:47;;;;;;;10.32;2.67;;;;;;;;;;4914121;29;20040;-65
2023/05/17 18:12:27;;;;;;;6.15;2.38;;;;;;;;;;4911022;29;20052;-66
2023/05/17 18:16:07;;;;;;;8.75;3.00;;;;;;;;;;4905969;29;20059;-63
2023/05/17 18:19:48;;;;;;;9.75;3.08;;;;;;;;;;4913701;29;20052;-65
2023/05/17 18:23:32;;;;;;;14.10;2.70;;;;;;;;;;4913506;29;20103;-65
2023/05/17 18:27:12;;;;;;;15.35;3.03;;;;;;;;;;4910914;29;20044;-66
2023/05/17 18:30:52;;;;;;;8.90;2.50;;;;;;;;;;4915529;29;20106;-66
2023/05/17 18:34:32;;;;;;;12.98;2.50;;;;;;;;;;4911773;29;20047;-64
2023/05/17 18:38:12;;;;;;;6.30;2.25;;;;;;;;;;4910777;29;20076;-65
2023/05/17 18:41:53;;;;;;;7.78;2.28;;;;;;;;;;4907749;29;20132;-64
2023/05/17 18:45:35;;;;;;;9.43;2.53;;;;;;;;;;4913200;29;20130;-65
2023/05/17 18:49:13;;;;;;;14.23;3.60;;;;;;;;;;4913561;29;20052;-64
2023/05/17 18:52:54;;;;;;;13.85;2.72;;;;;;;;;;4913979;29;20362;-65
2023/05/17 18:56:34;;;;;;;8.23;2.17;;;;;;;;;;4906054;29;20052;-65
2023/05/17 19:00:14;;;;;;;10.13;3.13;;;;;;;;;;4909859;29;20048;-66
2023/05/17 19:03:55;;;;;;;19.05;3.28;;;;;;;;;;4915565;29;20358;-65
2023/05/17 19:07:35;;;;;;;7.10;2.42;;;;;;;;;;4909008;29;20448;-65
2023/05/17 19:11:16;;;;;;;7.72;2.28;;;;;;;;;;4908432;29;20059;-66
2023/05/17 19:14:57;;;;;;;9.10;2.60;;;;;;;;;;4912456;29;20400;-65
2023/05/17 19:17:45;;;;;;;10.20;2.42;;;;;;;;;;4903669;29;20100;-64
2023/05/17 19:20:11;;;;;;;10.88;2.20;;;;;;;;;;4909737;29;20534;-67
2023/05/17 19:22:38;;;;;;;9.32;2.20;;;;;;;;;;4913315;29;20120;-63
2023/05/17 19:25:05;;;;;;;12.43;2.50;;;;;;;;;;4905024;29;20052;-68
2023/05/17 19:27:32;;;;;;;14.48;3.65;;;;;;;;;;4906221;29;20044;-66
2023/05/17 19:29:58;;;;;;;12.40;2.75;;;;;;;;;;4903492;29;20054;-64
2023/05/17 19:32:25;;;;;;;10.20;2.45;;;;;;;;;;4903220;29;20064;-65
2023/05/17 19:34:53;;;;;;;10.48;2.90;;;;;;;;;;4905736;29;20106;-66
2023/05/17 19:37:20;;;;;;;8.48;2.20;;;;;;;;;;4909110;29;20390;-67
2023/05/17 19:39:47;;;;;;;10.20;2.90;;;;;;;;;;4911174;29;20142;-66
2023/05/17 19:42:13;;;;;;;9.05;2.80;;;;;;;;;;4907674;29;20115;-65
2023/05/17 19:44:39;;;;;;;10.95;2.88;;;;;;;;;;4910170;29;20144;-69
2023/05/17 19:47:06;;;;;;;9.95;2.20;;;;;;;;;;4907897;29;20044;-66
2023/05/17 19:49:32;;;;;;;11.98;2.90;;;;;;;;;;4901031;29;20055;-66
2023/05/17 19:52:00;;;;;;;12.80;2.85;;;;;;;;;;4908465;29;20110;-66
2023/05/17 19:54:28;;;;;;;23.33;3.25;;;;;;;;;;4903020;29;20052;-67
2023/05/17 19:56:55;;;;;;;11.75;2.45;;;;;;;;;;4907953;29;20044;-70
2023/05/17 19:59:21;;;;;;;14.65;3.58;;;;;;;;;;4907356;29;20055;-70
2023/05/17 20:01:50;;;;;;;11.77;3.70;;;;;;;;;;4905788;29;20064;-66
2023/05/17 20:04:16;;;;;;;11.52;2.95;;;;;;;;;;4909658;29;20059;-68
2023/05/17 20:06:43;;;;;;;10.60;3.17;;;;;;;;;;4909211;29;20522;-67